sensor_id;sensor_type;location;lat;lon;timestamp;temperature;humidity
20973;DHT22;10645;52.370;13.314;2023-06-26T00:00:23;16.10;99.90
20973;DHT22;10645;52.370;13.314;2023-06-26T00:02:49;16.00;99.90
20973;DHT22;10645;52.370;13.314;2023-06-26T00:05:15;16.00;99.90
20973;DHT22;10645;52.370;13.314;2023-06-26T00:07:41;16.00;99.90
20973;DHT22;10645;52.370;13.314;2023-06-26T00:10:07;16.00;99.90
20973;DHT22;10645;52.370;13.314;2023-06-26T00:12:34;16.00;99.90
20973;DHT22;10645;52.370;13.314;2023-06-26T00:15:00;15.90;99.90
20973;DHT22;10645;52.370;13.314;2023-06-26T00:17:26;15.90;99.90
20973;DHT22;10645;52.370;13.314;2023-06-26T00:19:52;15.90;99.90
20973;DHT22;10645;52.370;13.314;2023-06-26T00:22:18;15.90;99.90
20973;DHT22;10645;52.370;13.314;2023-06-26T00:24:44;15.90;99.90
20973;DHT22;10645;52.370;13.314;2023-06-26T00:27:10;15.80;99.90
20973;DHT22;10645;52.370;13.314;2023-06-26T00:29:36;15.80;99.90
20973;DHT22;10645;52.370;13.314;2023-06-26T00:32:04;15.70;99.90
20973;DHT22;10645;52.370;13.314;2023-06-26T00:34:32;15.70;99.90
20973;DHT22;10645;52.370;13.314;2023-06-26T00:36:59;15.70;99.90
20973;DHT22;10645;52.370;13.314;2023-06-26T00:39:25;15.70;99.90
20973;DHT22;10645;52.370;13.314;2023-06-26T00:41:52;15.70;99.90
20973;DHT22;10645;52.370;13.314;2023-06-26T00:44:20;15.60;99.90
20973;DHT22;10645;52.370;13.314;2023-06-26T00:46:46;15.70;99.90
20973;DHT22;10645;52.370;13.314;2023-06-26T00:49:13;15.70;99.90
20973;DHT22;10645;52.370;13.314;2023-06-26T00:51:40;15.70;99.90
20973;DHT22;10645;52.370;13.314;2023-06-26T00:54:06;15.60;99.90
20973;DHT22;10645;52.370;13.314;2023-06-26T00:56:32;15.60;99.90
20973;DHT22;10645;52.370;13.314;2023-06-26T00:58:58;15.60;99.90
20973;DHT22;10645;52.370;13.314;2023-06-26T01:01:26;15.60;99.90
20973;DHT22;10645;52.370;13.314;2023-06-26T01:03:53;15.50;99.90
20973;DHT22;10645;52.370;13.314;2023-06-26T01:06:23;15.50;99.90
20973;DHT22;10645;52.370;13.314;2023-06-26T01:08:51;15.50;99.90
20973;DHT22;10645;52.370;13.314;2023-06-26T01:11:18;15.50;99.90
20973;DHT22;10645;52.370;13.314;2023-06-26T01:13:45;15.40;99.90
20973;DHT22;10645;52.370;13.314;2023-06-26T01:16:11;15.50;99.90
20973;DHT22;10645;52.370;13.314;2023-06-26T01:18:39;15.40;99.90
20973;DHT22;10645;52.370;13.314;2023-06-26T01:21:09;15.40;99.90
20973;DHT22;10645;52.370;13.314;2023-06-26T01:23:40;15.40;99.90
20973;DHT22;10645;52.370;13.314;2023-06-26T01:26:21;15.40;99.90
20973;DHT22;10645;52.370;13.314;2023-06-26T01:28:49;15.30;99.90
20973;DHT22;10645;52.370;13.314;2023-06-26T01:31:16;15.40;99.90
20973;DHT22;10645;52.370;13.314;2023-06-26T01:33:43;15.30;99.90
20973;DHT22;10645;52.370;13.314;2023-06-26T01:36:10;15.30;99.90
20973;DHT22;10645;52.370;13.314;2023-06-26T01:38:36;15.30;99.90
20973;DHT22;10645;52.370;13.314;2023-06-26T01:41:04;15.20;99.90
20973;DHT22;10645;52.370;13.314;2023-06-26T01:44:01;15.20;99.90
20973;DHT22;10645;52.370;13.314;2023-06-26T01:54:37;15.20;99.90
20973;DHT22;10645;52.370;13.314;2023-06-26T01:57:04;15.20;99.90
20973;DHT22;10645;52.370;13.314;2023-06-26T01:59:32;15.10;99.90
20973;DHT22;10645;52.370;13.314;2023-06-26T02:02:01;15.10;99.90
20973;DHT22;10645;52.370;13.314;2023-06-26T02:04:27;15.10;99.90
20973;DHT22;10645;52.370;13.314;2023-06-26T02:06:53;15.00;99.90
20973;DHT22;10645;52.370;13.314;2023-06-26T02:09:20;15.00;99.90
20973;DHT22;10645;52.370;13.314;2023-06-26T02:11:46;15.00;99.90
20973;DHT22;10645;52.370;13.314;2023-06-26T02:14:12;15.00;99.90
20973;DHT22;10645;52.370;13.314;2023-06-26T02:16:39;14.90;99.90
20973;DHT22;10645;52.370;13.314;2023-06-26T02:19:06;14.90;99.90
20973;DHT22;10645;52.370;13.314;2023-06-26T02:21:32;14.90;99.90
20973;DHT22;10645;52.370;13.314;2023-06-26T02:23:58;14.90;99.90
20973;DHT22;10645;52.370;13.314;2023-06-26T02:26:24;14.90;99.90
20973;DHT22;10645;52.370;13.314;2023-06-26T02:28:50;14.90;99.90
20973;DHT22;10645;52.370;13.314;2023-06-26T02:31:16;14.90;99.90
20973;DHT22;10645;52.370;13.314;2023-06-26T02:33:42;14.90;99.90
20973;DHT22;10645;52.370;13.314;2023-06-26T02:36:11;14.90;99.90
20973;DHT22;10645;52.370;13.314;2023-06-26T02:38:39;14.90;99.90
20973;DHT22;10645;52.370;13.314;2023-06-26T02:41:05;14.90;99.90
20973;DHT22;10645;52.370;13.314;2023-06-26T02:43:31;14.90;99.90
20973;DHT22;10645;52.370;13.314;2023-06-26T02:45:57;14.80;99.90
20973;DHT22;10645;52.370;13.314;2023-06-26T02:48:23;14.80;99.90
20973;DHT22;10645;52.370;13.314;2023-06-26T02:50:49;14.80;99.90
20973;DHT22;10645;52.370;13.314;2023-06-26T02:53:15;14.80;99.90
20973;DHT22;10645;52.370;13.314;2023-06-26T02:55:44;14.80;99.90
20973;DHT22;10645;52.370;13.314;2023-06-26T02:58:13;14.80;99.90
20973;DHT22;10645;52.370;13.314;2023-06-26T03:00:39;14.90;99.90
20973;DHT22;10645;52.370;13.314;2023-06-26T03:03:09;14.90;99.90
20973;DHT22;10645;52.370;13.314;2023-06-26T03:05:35;14.90;99.90
20973;DHT22;10645;52.370;13.314;2023-06-26T03:08:03;14.90;99.90
20973;DHT22;10645;52.370;13.314;2023-06-26T03:10:29;14.90;99.90
20973;DHT22;10645;52.370;13.314;2023-06-26T03:12:55;14.90;99.90
20973;DHT22;10645;52.370;13.314;2023-06-26T03:15:21;14.90;99.90
20973;DHT22;10645;52.370;13.314;2023-06-26T03:17:47;14.90;99.90
20973;DHT22;10645;52.370;13.314;2023-06-26T03:20:20;14.90;99.90
20973;DHT22;10645;52.370;13.314;2023-06-26T03:22:49;15.00;99.90
20973;DHT22;10645;52.370;13.314;2023-06-26T03:25:17;15.00;99.90
20973;DHT22;10645;52.370;13.314;2023-06-26T03:27:43;15.10;99.90
20973;DHT22;10645;52.370;13.314;2023-06-26T03:30:10;15.10;99.90
20973;DHT22;10645;52.370;13.314;2023-06-26T03:32:38;15.20;99.90
20973;DHT22;10645;52.370;13.314;2023-06-26T03:35:06;15.30;99.90
20973;DHT22;10645;52.370;13.314;2023-06-26T03:37:32;15.40;99.90
20973;DHT22;10645;52.370;13.314;2023-06-26T03:39:58;15.50;99.90
20973;DHT22;10645;52.370;13.314;2023-06-26T03:42:25;15.60;99.90
20973;DHT22;10645;52.370;13.314;2023-06-26T03:44:51;15.70;99.90
20973;DHT22;10645;52.370;13.314;2023-06-26T03:47:18;15.80;99.90
20973;DHT22;10645;52.370;13.314;2023-06-26T03:49:44;16.00;99.90
20973;DHT22;10645;52.370;13.314;2023-06-26T03:52:10;16.10;99.90
20973;DHT22;10645;52.370;13.314;2023-06-26T03:54:39;16.20;99.90
20973;DHT22;10645;52.370;13.314;2023-06-26T03:57:05;16.40;99.90
20973;DHT22;10645;52.370;13.314;2023-06-26T03:59:31;16.50;99.90
20973;DHT22;10645;52.370;13.314;2023-06-26T04:01:58;16.60;99.90
20973;DHT22;10645;52.370;13.314;2023-06-26T04:04:24;16.70;99.90
20973;DHT22;10645;52.370;13.314;2023-06-26T04:06:50;16.80;99.90
20973;DHT22;10645;52.370;13.314;2023-06-26T04:09:16;16.90;99.90
20973;DHT22;10645;52.370;13.314;2023-06-26T04:11:44;17.00;99.90
20973;DHT22;10645;52.370;13.314;2023-06-26T04:14:10;17.00;99.90
20973;DHT22;10645;52.370;13.314;2023-06-26T04:16:36;17.10;99.90
20973;DHT22;10645;52.370;13.314;2023-06-26T04:19:02;17.20;99.90
20973;DHT22;10645;52.370;13.314;2023-06-26T04:21:30;17.20;99.90
20973;DHT22;10645;52.370;13.314;2023-06-26T04:23:56;17.30;99.90
20973;DHT22;10645;52.370;13.314;2023-06-26T04:26:22;17.40;99.90
20973;DHT22;10645;52.370;13.314;2023-06-26T04:28:48;17.40;99.90
20973;DHT22;10645;52.370;13.314;2023-06-26T04:31:14;17.50;99.90
20973;DHT22;10645;52.370;13.314;2023-06-26T04:33:40;17.50;99.90
20973;DHT22;10645;52.370;13.314;2023-06-26T04:36:06;17.50;99.90
20973;DHT22;10645;52.370;13.314;2023-06-26T04:38:33;17.60;99.90
20973;DHT22;10645;52.370;13.314;2023-06-26T04:41:00;17.60;99.90
20973;DHT22;10645;52.370;13.314;2023-06-26T04:43:26;17.70;99.90
20973;DHT22;10645;52.370;13.314;2023-06-26T04:45:52;17.70;99.90
20973;DHT22;10645;52.370;13.314;2023-06-26T04:48:18;17.70;99.90
20973;DHT22;10645;52.370;13.314;2023-06-26T04:50:45;17.70;99.90
20973;DHT22;10645;52.370;13.314;2023-06-26T04:53:18;17.70;99.90
20973;DHT22;10645;52.370;13.314;2023-06-26T04:55:44;17.80;99.90
20973;DHT22;10645;52.370;13.314;2023-06-26T04:58:10;17.90;99.90
20973;DHT22;10645;52.370;13.314;2023-06-26T05:00:36;17.90;99.90
20973;DHT22;10645;52.370;13.314;2023-06-26T05:03:03;18.10;99.90
20973;DHT22;10645;52.370;13.314;2023-06-26T05:05:29;18.20;99.90
20973;DHT22;10645;52.370;13.314;2023-06-26T05:07:56;18.20;99.90
20973;DHT22;10645;52.370;13.314;2023-06-26T05:10:22;18.20;99.90
20973;DHT22;10645;52.370;13.314;2023-06-26T05:12:48;18.30;99.90
20973;DHT22;10645;52.370;13.314;2023-06-26T05:15:14;18.30;99.90
20973;DHT22;10645;52.370;13.314;2023-06-26T05:17:40;18.20;99.90
20973;DHT22;10645;52.370;13.314;2023-06-26T05:20:07;18.20;99.90
20973;DHT22;10645;52.370;13.314;2023-06-26T05:22:33;18.20;99.90
20973;DHT22;10645;52.370;13.314;2023-06-26T05:25:02;18.20;99.90
20973;DHT22;10645;52.370;13.314;2023-06-26T05:27:29;18.20;99.90
20973;DHT22;10645;52.370;13.314;2023-06-26T05:29:55;18.20;99.90
20973;DHT22;10645;52.370;13.314;2023-06-26T05:32:22;18.20;99.90
20973;DHT22;10645;52.370;13.314;2023-06-26T05:34:48;18.30;99.90
20973;DHT22;10645;52.370;13.314;2023-06-26T05:37:20;18.40;99.90
20973;DHT22;10645;52.370;13.314;2023-06-26T05:39:46;18.60;99.90
20973;DHT22;10645;52.370;13.314;2023-06-26T05:42:13;18.80;99.90
20973;DHT22;10645;52.370;13.314;2023-06-26T05:44:39;18.90;99.90
20973;DHT22;10645;52.370;13.314;2023-06-26T05:47:05;19.20;99.90
20973;DHT22;10645;52.370;13.314;2023-06-26T05:49:31;19.40;99.90
20973;DHT22;10645;52.370;13.314;2023-06-26T05:51:57;19.50;99.90
20973;DHT22;10645;52.370;13.314;2023-06-26T05:54:24;19.70;99.90
20973;DHT22;10645;52.370;13.314;2023-06-26T05:56:52;19.90;99.90
20973;DHT22;10645;52.370;13.314;2023-06-26T05:59:22;20.00;99.90
20973;DHT22;10645;52.370;13.314;2023-06-26T06:01:48;20.20;99.90
20973;DHT22;10645;52.370;13.314;2023-06-26T06:04:14;20.30;99.90
20973;DHT22;10645;52.370;13.314;2023-06-26T06:06:40;20.50;99.90
20973;DHT22;10645;52.370;13.314;2023-06-26T06:09:07;20.60;99.90
20973;DHT22;10645;52.370;13.314;2023-06-26T06:11:33;20.70;99.90
20973;DHT22;10645;52.370;13.314;2023-06-26T06:13:59;20.90;99.90
20973;DHT22;10645;52.370;13.314;2023-06-26T06:16:26;21.10;99.90
20973;DHT22;10645;52.370;13.314;2023-06-26T06:18:55;21.20;99.90
20973;DHT22;10645;52.370;13.314;2023-06-26T06:21:21;21.20;99.90
20973;DHT22;10645;52.370;13.314;2023-06-26T06:23:47;21.30;99.90
20973;DHT22;10645;52.370;13.314;2023-06-26T06:26:13;21.40;99.90
20973;DHT22;10645;52.370;13.314;2023-06-26T06:28:39;21.60;99.90
20973;DHT22;10645;52.370;13.314;2023-06-26T06:31:05;21.90;99.90
20973;DHT22;10645;52.370;13.314;2023-06-26T06:33:31;22.00;99.90
20973;DHT22;10645;52.370;13.314;2023-06-26T06:35:58;22.00;99.90
20973;DHT22;10645;52.370;13.314;2023-06-26T06:38:24;22.20;99.90
20973;DHT22;10645;52.370;13.314;2023-06-26T06:40:50;22.20;99.90
20973;DHT22;10645;52.370;13.314;2023-06-26T06:43:16;22.30;99.90
20973;DHT22;10645;52.370;13.314;2023-06-26T06:45:42;22.40;99.90
20973;DHT22;10645;52.370;13.314;2023-06-26T06:48:08;22.50;99.90
20973;DHT22;10645;52.370;13.314;2023-06-26T06:50:34;22.60;99.90
20973;DHT22;10645;52.370;13.314;2023-06-26T06:53:01;22.80;99.90
20973;DHT22;10645;52.370;13.314;2023-06-26T06:55:27;23.00;99.90
20973;DHT22;10645;52.370;13.314;2023-06-26T06:57:53;23.10;99.90
20973;DHT22;10645;52.370;13.314;2023-06-26T07:00:19;23.20;99.90
20973;DHT22;10645;52.370;13.314;2023-06-26T07:02:46;23.40;99.90
20973;DHT22;10645;52.370;13.314;2023-06-26T07:05:12;23.60;99.90
20973;DHT22;10645;52.370;13.314;2023-06-26T07:07:39;23.70;99.90
20973;DHT22;10645;52.370;13.314;2023-06-26T07:10:11;23.80;99.90
20973;DHT22;10645;52.370;13.314;2023-06-26T07:12:37;24.00;99.90
20973;DHT22;10645;52.370;13.314;2023-06-26T07:15:05;24.10;99.90
20973;DHT22;10645;52.370;13.314;2023-06-26T07:17:32;24.20;99.90
20973;DHT22;10645;52.370;13.314;2023-06-26T07:20:00;24.30;99.90
20973;DHT22;10645;52.370;13.314;2023-06-26T07:22:26;24.50;99.90
20973;DHT22;10645;52.370;13.314;2023-06-26T07:24:52;24.60;99.90
20973;DHT22;10645;52.370;13.314;2023-06-26T07:27:19;24.70;99.90
20973;DHT22;10645;52.370;13.314;2023-06-26T07:29:45;24.80;99.90
20973;DHT22;10645;52.370;13.314;2023-06-26T07:32:12;24.90;99.90
20973;DHT22;10645;52.370;13.314;2023-06-26T07:34:38;25.00;99.90
20973;DHT22;10645;52.370;13.314;2023-06-26T07:37:04;25.10;99.90
20973;DHT22;10645;52.370;13.314;2023-06-26T07:39:30;25.20;99.90
20973;DHT22;10645;52.370;13.314;2023-06-26T07:41:56;25.30;99.90
20973;DHT22;10645;52.370;13.314;2023-06-26T07:44:25;25.40;99.90
20973;DHT22;10645;52.370;13.314;2023-06-26T07:46:51;25.40;99.90
20973;DHT22;10645;52.370;13.314;2023-06-26T07:49:17;25.50;99.90
20973;DHT22;10645;52.370;13.314;2023-06-26T07:51:44;25.50;99.90
20973;DHT22;10645;52.370;13.314;2023-06-26T07:54:10;25.70;99.90
20973;DHT22;10645;52.370;13.314;2023-06-26T07:56:59;25.80;99.90
20973;DHT22;10645;52.370;13.314;2023-06-26T07:59:28;25.90;99.90
20973;DHT22;10645;52.370;13.314;2023-06-26T08:01:55;26.10;99.90
20973;DHT22;10645;52.370;13.314;2023-06-26T08:04:23;26.20;99.90
20973;DHT22;10645;52.370;13.314;2023-06-26T08:06:51;26.40;99.90
20973;DHT22;10645;52.370;13.314;2023-06-26T08:09:19;26.60;99.90
20973;DHT22;10645;52.370;13.314;2023-06-26T08:11:45;26.70;99.90
20973;DHT22;10645;52.370;13.314;2023-06-26T08:14:12;26.80;99.90
20973;DHT22;10645;52.370;13.314;2023-06-26T08:16:42;27.00;99.90
20973;DHT22;10645;52.370;13.314;2023-06-26T08:19:11;27.20;99.90
20973;DHT22;10645;52.370;13.314;2023-06-26T08:21:37;27.30;99.90
20973;DHT22;10645;52.370;13.314;2023-06-26T08:24:03;27.50;99.90
20973;DHT22;10645;52.370;13.314;2023-06-26T08:26:29;27.60;99.90
20973;DHT22;10645;52.370;13.314;2023-06-26T08:28:55;27.60;99.90
20973;DHT22;10645;52.370;13.314;2023-06-26T08:31:21;27.60;99.90
20973;DHT22;10645;52.370;13.314;2023-06-26T08:33:47;27.60;99.90
20973;DHT22;10645;52.370;13.314;2023-06-26T08:36:14;27.70;99.90
20973;DHT22;10645;52.370;13.314;2023-06-26T08:38:40;27.80;99.90
20973;DHT22;10645;52.370;13.314;2023-06-26T08:41:07;27.90;99.90
20973;DHT22;10645;52.370;13.314;2023-06-26T08:43:34;28.00;99.90
20973;DHT22;10645;52.370;13.314;2023-06-26T08:46:00;28.20;99.90
20973;DHT22;10645;52.370;13.314;2023-06-26T08:48:26;28.30;99.90
20973;DHT22;10645;52.370;13.314;2023-06-26T08:50:55;28.30;99.90
20973;DHT22;10645;52.370;13.314;2023-06-26T08:53:29;28.20;99.60
20973;DHT22;10645;52.370;13.314;2023-06-26T08:55:59;28.40;99.90
20973;DHT22;10645;52.370;13.314;2023-06-26T08:58:26;28.50;99.90
20973;DHT22;10645;52.370;13.314;2023-06-26T09:00:52;28.40;99.30
20973;DHT22;10645;52.370;13.314;2023-06-26T09:03:18;28.60;99.90
20973;DHT22;10645;52.370;13.314;2023-06-26T09:05:45;28.80;99.90
20973;DHT22;10645;52.370;13.314;2023-06-26T09:08:11;28.80;99.20
20973;DHT22;10645;52.370;13.314;2023-06-26T09:10:37;28.90;99.80
20973;DHT22;10645;52.370;13.314;2023-06-26T09:13:03;29.10;99.50
20973;DHT22;10645;52.370;13.314;2023-06-26T09:15:42;29.10;99.90
20973;DHT22;10645;52.370;13.314;2023-06-26T09:18:09;29.20;97.30
20973;DHT22;10645;52.370;13.314;2023-06-26T09:20:35;29.20;99.80
20973;DHT22;10645;52.370;13.314;2023-06-26T09:23:02;29.30;98.60
20973;DHT22;10645;52.370;13.314;2023-06-26T09:25:28;29.30;97.60
20973;DHT22;10645;52.370;13.314;2023-06-26T09:27:55;29.30;97.50
20973;DHT22;10645;52.370;13.314;2023-06-26T09:30:22;29.40;97.10
20973;DHT22;10645;52.370;13.314;2023-06-26T09:32:48;29.40;98.30
20973;DHT22;10645;52.370;13.314;2023-06-26T09:35:16;29.40;96.50
20973;DHT22;10645;52.370;13.314;2023-06-26T09:37:43;29.50;99.30
20973;DHT22;10645;52.370;13.314;2023-06-26T09:40:09;29.60;97.60
20973;DHT22;10645;52.370;13.314;2023-06-26T09:42:35;29.70;96.60
20973;DHT22;10645;52.370;13.314;2023-06-26T09:45:02;29.80;94.90
20973;DHT22;10645;52.370;13.314;2023-06-26T09:47:31;29.70;95.10
20973;DHT22;10645;52.370;13.314;2023-06-26T09:50:02;29.70;96.00
20973;DHT22;10645;52.370;13.314;2023-06-26T09:52:28;29.90;96.10
20973;DHT22;10645;52.370;13.314;2023-06-26T09:55:10;29.90;95.40
20973;DHT22;10645;52.370;13.314;2023-06-26T09:57:38;30.20;94.10
20973;DHT22;10645;52.370;13.314;2023-06-26T10:00:05;30.40;95.40
20973;DHT22;10645;52.370;13.314;2023-06-26T10:02:38;30.40;93.80
20973;DHT22;10645;52.370;13.314;2023-06-26T10:05:04;30.60;94.90
20973;DHT22;10645;52.370;13.314;2023-06-26T10:07:31;30.60;95.20
20973;DHT22;10645;52.370;13.314;2023-06-26T10:09:57;30.80;93.40
20973;DHT22;10645;52.370;13.314;2023-06-26T10:12:30;30.50;92.70
20973;DHT22;10645;52.370;13.314;2023-06-26T10:14:58;30.50;93.40
20973;DHT22;10645;52.370;13.314;2023-06-26T10:17:26;30.60;93.90
20973;DHT22;10645;52.370;13.314;2023-06-26T10:19:53;30.70;92.60
20973;DHT22;10645;52.370;13.314;2023-06-26T10:22:27;30.60;92.90
20973;DHT22;10645;52.370;13.314;2023-06-26T10:24:57;30.50;93.00
20973;DHT22;10645;52.370;13.314;2023-06-26T10:27:28;30.70;92.70
20973;DHT22;10645;52.370;13.314;2023-06-26T10:29:58;30.90;92.20
20973;DHT22;10645;52.370;13.314;2023-06-26T10:32:26;30.60;91.00
20973;DHT22;10645;52.370;13.314;2023-06-26T10:34:53;30.70;92.00
20973;DHT22;10645;52.370;13.314;2023-06-26T10:37:19;30.80;92.50
20973;DHT22;10645;52.370;13.314;2023-06-26T10:39:50;31.00;91.70
20973;DHT22;10645;52.370;13.314;2023-06-26T10:42:17;31.00;91.80
20973;DHT22;10645;52.370;13.314;2023-06-26T10:44:46;31.10;93.40
20973;DHT22;10645;52.370;13.314;2023-06-26T10:47:29;31.30;94.40
20973;DHT22;10645;52.370;13.314;2023-06-26T10:49:56;31.20;89.60
20973;DHT22;10645;52.370;13.314;2023-06-26T10:52:22;31.30;92.20
20973;DHT22;10645;52.370;13.314;2023-06-26T10:54:54;31.60;91.00
20973;DHT22;10645;52.370;13.314;2023-06-26T10:57:23;31.50;88.50
20973;DHT22;10645;52.370;13.314;2023-06-26T11:00:17;31.50;91.10
20973;DHT22;10645;52.370;13.314;2023-06-26T11:02:50;31.60;91.20
20973;DHT22;10645;52.370;13.314;2023-06-26T11:05:27;32.00;89.50
20973;DHT22;10645;52.370;13.314;2023-06-26T11:08:07;32.00;88.90
20973;DHT22;10645;52.370;13.314;2023-06-26T11:10:54;32.00;89.10
20973;DHT22;10645;52.370;13.314;2023-06-26T11:13:21;31.70;89.60
20973;DHT22;10645;52.370;13.314;2023-06-26T11:15:49;31.80;90.30
20973;DHT22;10645;52.370;13.314;2023-06-26T11:18:16;32.10;90.30
20973;DHT22;10645;52.370;13.314;2023-06-26T11:20:42;32.40;87.20
20973;DHT22;10645;52.370;13.314;2023-06-26T11:23:09;32.30;83.60
20973;DHT22;10645;52.370;13.314;2023-06-26T11:25:36;32.10;83.80
20973;DHT22;10645;52.370;13.314;2023-06-26T11:28:04;32.10;87.30
20973;DHT22;10645;52.370;13.314;2023-06-26T11:30:31;32.00;86.10
20973;DHT22;10645;52.370;13.314;2023-06-26T11:33:07;32.10;86.10
20973;DHT22;10645;52.370;13.314;2023-06-26T11:35:34;32.30;85.40
20973;DHT22;10645;52.370;13.314;2023-06-26T11:38:01;32.40;84.00
20973;DHT22;10645;52.370;13.314;2023-06-26T11:40:35;32.30;86.30
20973;DHT22;10645;52.370;13.314;2023-06-26T11:43:01;32.40;85.10
20973;DHT22;10645;52.370;13.314;2023-06-26T11:45:32;32.60;87.30
20973;DHT22;10645;52.370;13.314;2023-06-26T11:47:59;33.00;84.30
20973;DHT22;10645;52.370;13.314;2023-06-26T11:50:26;33.00;82.00
20973;DHT22;10645;52.370;13.314;2023-06-26T11:52:54;32.70;84.00
20973;DHT22;10645;52.370;13.314;2023-06-26T11:55:21;32.40;90.40
20973;DHT22;10645;52.370;13.314;2023-06-26T11:57:50;32.30;91.20
20973;DHT22;10645;52.370;13.314;2023-06-26T12:00:19;32.20;83.80
20973;DHT22;10645;52.370;13.314;2023-06-26T12:02:45;32.40;84.60
20973;DHT22;10645;52.370;13.314;2023-06-26T12:05:14;32.30;83.40
20973;DHT22;10645;52.370;13.314;2023-06-26T12:07:45;32.40;86.30
20973;DHT22;10645;52.370;13.314;2023-06-26T12:10:12;32.60;85.90
20973;DHT22;10645;52.370;13.314;2023-06-26T12:12:39;32.50;86.60
20973;DHT22;10645;52.370;13.314;2023-06-26T12:15:07;32.50;84.00
20973;DHT22;10645;52.370;13.314;2023-06-26T12:17:37;32.50;85.30
20973;DHT22;10645;52.370;13.314;2023-06-26T12:20:04;32.60;87.50
20973;DHT22;10645;52.370;13.314;2023-06-26T12:22:35;32.70;86.50
20973;DHT22;10645;52.370;13.314;2023-06-26T12:25:01;32.50;81.80
20973;DHT22;10645;52.370;13.314;2023-06-26T12:27:27;32.60;81.00
20973;DHT22;10645;52.370;13.314;2023-06-26T12:29:54;32.40;83.80
20973;DHT22;10645;52.370;13.314;2023-06-26T12:32:24;32.60;84.40
20973;DHT22;10645;52.370;13.314;2023-06-26T12:34:52;32.50;83.40
20973;DHT22;10645;52.370;13.314;2023-06-26T12:37:19;32.40;84.50
20973;DHT22;10645;52.370;13.314;2023-06-26T12:42:23;32.50;84.30
20973;DHT22;10645;52.370;13.314;2023-06-26T12:44:50;32.60;87.00
20973;DHT22;10645;52.370;13.314;2023-06-26T12:47:17;32.80;88.10
20973;DHT22;10645;52.370;13.314;2023-06-26T12:49:45;33.00;83.40
20973;DHT22;10645;52.370;13.314;2023-06-26T12:52:13;32.90;84.20
20973;DHT22;10645;52.370;13.314;2023-06-26T12:54:40;32.90;83.50
20973;DHT22;10645;52.370;13.314;2023-06-26T12:57:07;33.30;84.00
20973;DHT22;10645;52.370;13.314;2023-06-26T12:59:36;33.60;81.80
20973;DHT22;10645;52.370;13.314;2023-06-26T13:02:02;33.60;80.10
20973;DHT22;10645;52.370;13.314;2023-06-26T13:04:28;33.40;78.30
20973;DHT22;10645;52.370;13.314;2023-06-26T13:06:55;33.30;80.70
20973;DHT22;10645;52.370;13.314;2023-06-26T13:09:22;33.40;82.50
20973;DHT22;10645;52.370;13.314;2023-06-26T13:11:49;33.30;79.30
20973;DHT22;10645;52.370;13.314;2023-06-26T13:14:15;33.50;83.30
20973;DHT22;10645;52.370;13.314;2023-06-26T13:16:41;33.60;81.70
20973;DHT22;10645;52.370;13.314;2023-06-26T13:19:08;34.00;80.80
20973;DHT22;10645;52.370;13.314;2023-06-26T13:21:34;34.10;79.80
20973;DHT22;10645;52.370;13.314;2023-06-26T13:24:01;34.20;81.20
20973;DHT22;10645;52.370;13.314;2023-06-26T13:26:27;34.00;79.40
20973;DHT22;10645;52.370;13.314;2023-06-26T13:28:55;34.30;78.00
20973;DHT22;10645;52.370;13.314;2023-06-26T13:31:21;34.20;79.80
20973;DHT22;10645;52.370;13.314;2023-06-26T13:33:47;33.80;77.50
20973;DHT22;10645;52.370;13.314;2023-06-26T13:36:18;33.30;78.10
20973;DHT22;10645;52.370;13.314;2023-06-26T13:38:45;33.10;80.50
20973;DHT22;10645;52.370;13.314;2023-06-26T13:41:11;33.00;78.20
20973;DHT22;10645;52.370;13.314;2023-06-26T13:43:38;33.00;77.20
20973;DHT22;10645;52.370;13.314;2023-06-26T13:46:04;32.90;79.70
20973;DHT22;10645;52.370;13.314;2023-06-26T13:48:30;32.70;77.60
20973;DHT22;10645;52.370;13.314;2023-06-26T13:50:56;32.50;78.60
20973;DHT22;10645;52.370;13.314;2023-06-26T13:53:22;32.70;79.50
20973;DHT22;10645;52.370;13.314;2023-06-26T13:55:48;32.90;79.20
20973;DHT22;10645;52.370;13.314;2023-06-26T13:58:14;33.10;79.20
20973;DHT22;10645;52.370;13.314;2023-06-26T14:00:40;33.20;78.20
20973;DHT22;10645;52.370;13.314;2023-06-26T14:03:07;32.60;79.50
20973;DHT22;10645;52.370;13.314;2023-06-26T14:05:34;32.30;80.20
20973;DHT22;10645;52.370;13.314;2023-06-26T14:08:03;31.50;80.70
20973;DHT22;10645;52.370;13.314;2023-06-26T14:10:30;31.20;82.60
20973;DHT22;10645;52.370;13.314;2023-06-26T14:12:56;31.00;82.10
20973;DHT22;10645;52.370;13.314;2023-06-26T14:15:22;30.80;82.60
20973;DHT22;10645;52.370;13.314;2023-06-26T14:17:48;30.60;83.40
20973;DHT22;10645;52.370;13.314;2023-06-26T14:20:16;30.40;83.60
20973;DHT22;10645;52.370;13.314;2023-06-26T14:22:43;30.20;85.60
20973;DHT22;10645;52.370;13.314;2023-06-26T14:25:10;29.80;89.00
20973;DHT22;10645;52.370;13.314;2023-06-26T14:27:37;28.70;92.60
20973;DHT22;10645;52.370;13.314;2023-06-26T14:30:04;27.20;99.50
20973;DHT22;10645;52.370;13.314;2023-06-26T14:32:30;26.00;99.90
20973;DHT22;10645;52.370;13.314;2023-06-26T14:34:58;24.30;99.90
20973;DHT22;10645;52.370;13.314;2023-06-26T14:37:25;23.30;99.90
20973;DHT22;10645;52.370;13.314;2023-06-26T14:39:52;22.60;99.90
20973;DHT22;10645;52.370;13.314;2023-06-26T14:42:18;21.90;99.90
20973;DHT22;10645;52.370;13.314;2023-06-26T14:44:44;21.10;99.90
20973;DHT22;10645;52.370;13.314;2023-06-26T14:47:13;20.60;99.90
20973;DHT22;10645;52.370;13.314;2023-06-26T14:49:40;20.40;99.90
20973;DHT22;10645;52.370;13.314;2023-06-26T14:52:06;20.20;99.90
20973;DHT22;10645;52.370;13.314;2023-06-26T14:54:34;20.20;99.90
20973;DHT22;10645;52.370;13.314;2023-06-26T14:57:05;20.00;99.90
20973;DHT22;10645;52.370;13.314;2023-06-26T14:59:31;20.00;99.90
20973;DHT22;10645;52.370;13.314;2023-06-26T15:01:57;20.00;99.90
20973;DHT22;10645;52.370;13.314;2023-06-26T15:04:23;19.90;99.90
20973;DHT22;10645;52.370;13.314;2023-06-26T15:06:49;19.90;99.90
20973;DHT22;10645;52.370;13.314;2023-06-26T15:09:15;19.90;99.90
20973;DHT22;10645;52.370;13.314;2023-06-26T15:11:42;19.90;99.90
20973;DHT22;10645;52.370;13.314;2023-06-26T15:14:08;19.90;99.90
20973;DHT22;10645;52.370;13.314;2023-06-26T15:16:35;19.80;99.90
20973;DHT22;10645;52.370;13.314;2023-06-26T15:19:01;19.80;99.90
20973;DHT22;10645;52.370;13.314;2023-06-26T15:21:27;19.80;99.90
20973;DHT22;10645;52.370;13.314;2023-06-26T15:23:53;19.80;99.90
20973;DHT22;10645;52.370;13.314;2023-06-26T15:26:19;19.70;99.90